createdAt,value
2023-03-15T06:31:53.688Z,2.47
2023-03-15T06:34:21.285Z,2.03
2023-03-15T06:36:52.567Z,2.35
2023-03-15T06:39:20.369Z,1.95
2023-03-15T06:41:47.988Z,1.63
2023-03-15T06:44:15.489Z,1.75
2023-03-15T06:46:43.241Z,2.10
2023-03-15T06:49:10.867Z,1.90
2023-03-15T06:51:38.674Z,1.98
2023-03-15T06:54:06.515Z,3.55
2023-03-15T06:56:37.232Z,2.45
2023-03-15T06:59:05.024Z,2.67
2023-03-15T07:01:32.758Z,2.72
2023-03-15T07:04:01.436Z,2.10
2023-03-15T07:06:29.764Z,2.17
2023-03-15T07:08:59.312Z,1.98
2023-03-15T07:11:29.616Z,2.13
2023-03-15T07:13:57.483Z,2.08
2023-03-15T07:16:27.260Z,1.98
2023-03-15T07:18:58.836Z,2.13
2023-03-15T07:21:28.636Z,1.90
2023-03-15T07:23:57.405Z,1.92
2023-03-15T07:26:26.749Z,2.15
2023-03-15T07:28:58.063Z,2.15
2023-03-15T07:31:27.656Z,1.60
2023-03-15T07:33:56.338Z,1.48
2023-03-15T07:36:24.254Z,1.70
2023-03-15T07:38:52.178Z,1.95
2023-03-15T07:41:20.368Z,1.40
2023-03-15T07:43:48.479Z,1.27
2023-03-15T07:46:16.685Z,1.42
2023-03-15T07:48:44.322Z,1.25
2023-03-15T07:51:13.515Z,1.15
2023-03-15T07:53:41.392Z,1.10
2023-03-15T07:56:08.978Z,0.60
2023-03-15T07:58:36.616Z,1.60
2023-03-15T08:01:04.266Z,1.17
2023-03-15T08:03:32.256Z,1.10
2023-03-15T08:05:59.949Z,0.73
2023-03-15T08:08:27.671Z,0.85
2023-03-15T08:10:57.375Z,0.80
2023-03-15T08:13:26.000Z,1.50
2023-03-15T08:15:53.730Z,0.90
2023-03-15T08:18:21.609Z,1.00
2023-03-15T08:20:49.364Z,0.98
2023-03-15T08:23:17.224Z,0.90
2023-03-15T08:25:45.160Z,0.77
2023-03-15T08:28:13.230Z,0.73
2023-03-15T08:30:40.990Z,1.50
2023-03-15T08:33:09.188Z,1.85
2023-03-15T08:35:37.139Z,2.90
2023-03-15T08:38:04.663Z,1.98
2023-03-15T08:40:33.486Z,2.83
2023-03-15T08:43:01.054Z,1.20
2023-03-15T08:45:28.463Z,1.88
2023-03-15T08:48:00.633Z,1.63
2023-03-15T08:50:31.748Z,1.17
2023-03-15T08:52:59.230Z,0.80
2023-03-15T08:55:26.919Z,0.90
2023-03-15T08:57:56.084Z,1.00
2023-03-15T09:00:24.976Z,0.98
2023-03-15T09:02:52.871Z,1.45
2023-03-15T09:05:22.343Z,0.85
2023-03-15T09:07:54.816Z,0.50
2023-03-15T09:10:23.991Z,0.47
2023-03-15T09:12:54.604Z,0.68
2023-03-15T09:15:24.796Z,0.88
2023-03-15T09:17:53.840Z,0.80
2023-03-15T09:20:24.565Z,0.90
2023-03-15T09:22:55.648Z,0.90
2023-03-15T09:25:25.226Z,0.60
2023-03-15T09:27:54.302Z,0.70
2023-03-15T09:30:22.379Z,1.00
2023-03-15T09:32:50.176Z,1.00
2023-03-15T09:35:20.152Z,0.82
2023-03-15T09:37:49.576Z,0.82
2023-03-15T09:40:25.128Z,0.93
2023-03-15T09:43:07.590Z,1.10
2023-03-15T09:45:55.796Z,0.88
2023-03-15T09:48:47.349Z,0.93
2023-03-15T09:51:21.734Z,1.13
2023-03-15T09:54:00.730Z,1.05
2023-03-15T09:56:45.662Z,1.20
2023-03-15T09:59:17.626Z,0.50
2023-03-15T10:01:46.981Z,0.80
2023-03-15T10:04:43.172Z,0.40
2023-03-15T10:07:14.943Z,0.30
2023-03-15T10:09:43.655Z,0.60
2023-03-15T10:12:19.343Z,0.63
2023-03-15T10:15:20.648Z,0.40
2023-03-15T10:18:15.994Z,0.40
2023-03-15T10:20:54.214Z,0.80
2023-03-15T10:23:46.859Z,0.68
2023-03-15T10:26:19.085Z,1.00
2023-03-15T10:28:47.198Z,0.70
2023-03-15T10:31:36.792Z,0.88
2023-03-15T10:34:14.343Z,0.52
2023-03-15T10:37:00.561Z,1.23
2023-03-15T10:39:30.043Z,0.85
2023-03-15T10:42:00.152Z,0.63
2023-03-15T10:44:29.588Z,0.75
2023-03-15T10:47:22.471Z,0.98
2023-03-15T10:49:58.344Z,0.80
2023-03-15T10:52:39.371Z,0.98
2023-03-15T10:55:20.365Z,1.40
2023-03-15T10:58:00.599Z,1.83
2023-03-15T11:00:39.892Z,1.05
2023-03-15T11:03:22.287Z,1.73
2023-03-15T11:06:01.308Z,2.08
2023-03-15T11:08:43.271Z,1.50
2023-03-15T11:11:13.054Z,1.85
2023-03-15T11:14:00.514Z,1.77
2023-03-15T11:16:38.539Z,1.35
2023-03-15T11:19:15.763Z,1.80
2023-03-15T11:21:45.833Z,1.95
2023-03-15T11:24:35.658Z,1.40
2023-03-15T11:27:15.961Z,1.60
2023-03-15T11:29:57.330Z,1.88
2023-03-15T11:32:29.645Z,1.75
2023-03-15T11:35:30.576Z,1.30
2023-03-15T11:38:19.313Z,2.03
2023-03-15T11:40:52.160Z,1.83
2023-03-15T11:43:28.451Z,1.20
2023-03-15T11:46:11.278Z,1.48
2023-03-15T11:48:55.452Z,1.52
2023-03-15T11:51:22.940Z,1.45
2023-03-15T11:54:08.950Z,1.58
2023-03-15T11:57:03.367Z,1.35
2023-03-15T11:59:40.816Z,1.90
2023-03-15T12:02:13.518Z,1.60
2023-03-15T12:04:46.418Z,1.58
2023-03-15T12:07:20.040Z,1.98
2023-03-15T12:09:56.231Z,2.03
2023-03-15T12:12:26.744Z,1.63
2023-03-15T12:15:03.120Z,1.30
2023-03-15T12:17:38.301Z,1.33
2023-03-15T12:20:20.159Z,1.60
2023-03-15T12:22:55.109Z,1.88
2023-03-15T12:25:45.467Z,1.73
2023-03-15T12:28:31.589Z,1.70
2023-03-15T12:31:02.529Z,2.03
2023-03-15T12:33:32.725Z,2.95
2023-03-15T12:36:05.588Z,2.67
2023-03-15T12:38:38.658Z,1.90
2023-03-15T12:41:31.280Z,2.38
2023-03-15T12:44:18.910Z,2.10
2023-03-15T12:46:46.304Z,2.55
2023-03-15T12:49:24.090Z,2.22
2023-03-15T12:52:02.257Z,4.00
2023-03-15T12:54:55.274Z,2.47
2023-03-15T12:57:52.182Z,7.35
2023-03-15T13:00:38.622Z,3.28
2023-03-15T13:03:22.549Z,1.88
2023-03-15T13:06:30.984Z,2.15
2023-03-15T13:09:18.356Z,2.90
2023-03-15T13:12:16.792Z,2.15
2023-03-15T13:15:02.840Z,2.42
2023-03-15T13:17:54.766Z,1.65
2023-03-15T13:20:50.374Z,2.15
2023-03-15T13:23:26.295Z,2.67
2023-03-15T13:26:25.145Z,1.92
2023-03-15T13:29:02.540Z,1.60
2023-03-15T13:31:32.299Z,2.17
2023-03-15T13:34:25.775Z,2.40
2023-03-15T13:39:39.926Z,1.95
2023-03-15T13:42:21.762Z,1.50
2023-03-15T13:45:03.612Z,1.88
2023-03-15T13:47:31.560Z,1.60
2023-03-15T13:49:59.931Z,1.65
2023-03-15T13:52:27.798Z,1.95
2023-03-15T13:54:56.110Z,1.55
2023-03-15T13:57:24.042Z,1.58
2023-03-15T13:59:57.156Z,2.05
2023-03-15T14:02:37.904Z,1.60
2023-03-15T14:05:11.078Z,2.25
2023-03-15T14:07:45.424Z,2.30
2023-03-15T14:10:22.869Z,1.67
2023-03-15T14:12:51.697Z,1.85
2023-03-15T14:15:44.184Z,2.03
2023-03-15T14:18:11.355Z,2.03
2023-03-15T14:20:43.367Z,2.15
2023-03-15T14:23:15.213Z,2.20
2023-03-15T14:25:43.751Z,1.90
2023-03-15T14:28:15.675Z,2.20
2023-03-15T14:30:50.813Z,1.70
2023-03-15T14:33:34.748Z,2.60
2023-03-15T14:36:05.506Z,2.63
2023-03-15T14:38:36.770Z,2.45
2023-03-15T14:41:18.084Z,2.05
2023-03-15T14:43:45.699Z,2.53
2023-03-15T14:46:13.020Z,2.80
2023-03-15T14:48:40.852Z,2.15
2023-03-15T14:51:17.645Z,2.65
2023-03-15T14:53:45.899Z,2.30
2023-03-15T14:56:14.088Z,2.28
2023-03-15T14:58:42.447Z,2.55
2023-03-15T15:01:15.120Z,2.53
2023-03-15T15:03:48.512Z,2.78
2023-03-15T15:06:17.107Z,2.75
2023-03-15T15:08:47.026Z,2.35
2023-03-15T15:11:14.887Z,2.50
2023-03-15T15:13:42.652Z,2.92
2023-03-15T15:16:10.261Z,2.72
2023-03-15T15:18:38.013Z,2.63
2023-03-15T15:21:33.044Z,3.70
2023-03-15T15:24:05.489Z,2.55
2023-03-15T15:26:33.439Z,2.42
2023-03-15T15:29:00.849Z,2.45
2023-03-15T15:31:29.267Z,2.88
2023-03-15T15:33:57.490Z,3.13
2023-03-15T15:36:34.033Z,3.53
2023-03-15T15:39:06.347Z,2.90
2023-03-15T15:44:01.742Z,3.00
2023-03-15T15:46:29.725Z,2.90
2023-03-15T15:48:57.234Z,2.05
2023-03-15T15:51:31.608Z,3.00
2023-03-15T15:54:00.780Z,2.47
2023-03-15T15:56:34.450Z,2.65
2023-03-15T15:59:04.554Z,2.92
2023-03-15T16:01:32.918Z,3.00
2023-03-15T16:04:02.218Z,3.53
2023-03-15T16:06:30.499Z,2.42
2023-03-15T16:08:58.316Z,3.13
2023-03-15T16:11:26.116Z,2.28
2023-03-15T16:13:56.575Z,2.20
2023-03-15T16:16:24.247Z,2.47
2023-03-15T16:18:51.295Z,3.10
2023-03-15T16:21:42.801Z,3.10
2023-03-15T16:24:20.200Z,3.70
2023-03-15T16:26:48.770Z,2.80
2023-03-15T16:29:19.246Z,3.35
2023-03-15T16:31:47.139Z,3.80
2023-03-15T16:34:16.401Z,3.80
2023-03-15T16:36:48.535Z,3.92
2023-03-15T16:39:16.796Z,3.42
2023-03-15T16:41:44.592Z,3.05
2023-03-15T16:44:13.581Z,2.33
2023-03-15T16:46:41.046Z,3.10
2023-03-15T16:49:08.995Z,3.05
2023-03-15T16:51:40.197Z,2.60
2023-03-15T16:54:19.646Z,2.70
2023-03-15T16:56:49.396Z,3.10
2023-03-15T16:59:17.715Z,3.50
